createdAt,value
2023-03-05T00:01:18.263Z,97055.22
2023-03-05T00:03:46.347Z,97057.91
2023-03-05T00:06:13.280Z,97061.25
2023-03-05T00:08:41.104Z,97051.59
2023-03-05T00:11:11.216Z,97056.78
2023-03-05T00:13:38.615Z,97054.03
2023-03-05T00:16:11.603Z,97052.31
2023-03-05T00:18:38.891Z,97055.72
2023-03-05T00:21:24.917Z,97053.16
2023-03-05T00:23:52.885Z,97054.63
2023-03-05T00:26:22.503Z,97050.03
2023-03-05T00:28:51.642Z,97057.03
2023-03-05T00:31:30.124Z,97051.69
2023-03-05T00:34:01.087Z,97048.94
2023-03-05T00:36:28.445Z,97046.38
2023-03-05T00:38:56.124Z,97045.78
2023-03-05T00:41:23.205Z,97048.56
2023-03-05T00:43:50.214Z,97042.50
2023-03-05T00:46:18.283Z,97044.56
2023-03-05T00:48:45.209Z,97041.31
2023-03-05T00:51:12.427Z,97033.56
2023-03-05T00:53:39.341Z,97033.81
2023-03-05T00:56:06.953Z,97028.88
2023-03-05T00:58:33.851Z,97034.31
2023-03-05T01:01:02.930Z,97023.91
2023-03-05T01:03:31.257Z,97019.56
2023-03-05T01:05:58.873Z,97017.75
2023-03-05T01:08:25.701Z,97018.59
2023-03-05T01:10:52.729Z,97015.69
2023-03-05T01:13:20.075Z,97019.91
2023-03-05T01:15:48.664Z,97021.47
2023-03-05T01:18:15.597Z,97008.88
2023-03-05T01:20:42.836Z,97005.25
2023-03-05T01:23:10.063Z,97008.63
2023-03-05T01:25:37.431Z,97015.38
2023-03-05T01:28:04.378Z,97010.78
2023-03-05T01:30:32.891Z,96996.50
2023-03-05T01:33:00.207Z,96999.91
2023-03-05T01:35:27.391Z,96998.81
2023-03-05T01:37:54.547Z,96991.66
2023-03-05T01:40:26.412Z,96990.69
2023-03-05T01:43:24.928Z,96985.50
2023-03-05T01:46:13.213Z,96994.06
2023-03-05T01:48:42.767Z,96988.50
2023-03-05T01:51:09.692Z,96982.06
2023-03-05T01:53:36.975Z,96977.47
2023-03-05T01:56:04.050Z,96979.13
2023-03-05T01:58:31.080Z,96977.31
2023-03-05T02:00:58.209Z,96968.34
2023-03-05T02:03:26.293Z,96962.06
2023-03-05T02:05:53.621Z,96959.13
2023-03-05T02:08:22.404Z,96961.78
2023-03-05T02:10:52.253Z,96958.16
2023-03-05T02:13:22.613Z,96954.91
2023-03-05T02:15:50.803Z,96952.56
2023-03-05T02:18:19.031Z,96950.88
2023-03-05T02:20:57.649Z,96948.34
2023-03-05T02:23:27.845Z,96946.38
2023-03-05T02:25:55.611Z,96948.06
2023-03-05T02:28:47.760Z,96939.63
2023-03-05T02:31:19.790Z,96943.03
2023-03-05T02:33:47.948Z,96944.69
2023-03-05T02:36:16.766Z,96943.03
2023-03-05T02:38:44.346Z,96935.88
2023-03-05T02:41:12.040Z,96937.69
2023-03-05T02:43:39.252Z,96939.38
2023-03-05T02:46:06.733Z,96933.19
2023-03-05T02:48:33.781Z,96939.38
2023-03-05T02:51:03.569Z,96932.38
2023-03-05T02:53:30.389Z,96928.56
2023-03-05T02:55:57.221Z,96928.47
2023-03-05T02:58:24.255Z,96921.31
2023-03-05T03:00:51.667Z,96916.69
2023-03-05T03:03:18.581Z,96913.06
2023-03-05T03:05:45.600Z,96915.59
2023-03-05T03:08:12.424Z,96919.09
2023-03-05T03:10:39.195Z,96909.41
2023-03-05T03:13:06.064Z,96909.28
2023-03-05T03:15:33.085Z,96904.09
2023-03-05T03:17:59.839Z,96907.44
2023-03-05T03:20:26.748Z,96899.59
2023-03-05T03:22:53.778Z,96899.59
2023-03-05T03:25:22.997Z,96902.25
2023-03-05T03:27:52.140Z,96891.47
2023-03-05T03:30:19.098Z,96887.84
2023-03-05T03:32:47.328Z,96891.47
2023-03-05T03:35:14.187Z,96890.75
2023-03-05T03:37:41.154Z,96882.03
2023-03-05T03:40:08.906Z,96885.53
2023-03-05T03:42:35.728Z,96880.22
2023-03-05T03:45:03.364Z,96888.22
2023-03-05T03:47:31.026Z,96871.38
2023-03-05T03:49:58.850Z,96880.22
2023-03-05T03:52:26.418Z,96886.41
2023-03-05T03:54:55.501Z,96871.25
2023-03-05T03:57:22.294Z,96872.22
2023-03-05T03:59:50.214Z,96875.75
2023-03-05T04:02:17.527Z,96872.34
2023-03-05T04:04:44.468Z,96874.31
2023-03-05T04:07:11.538Z,96872.63
2023-03-05T04:09:38.729Z,96869.25
2023-03-05T04:12:05.722Z,96863.34
2023-03-05T04:14:32.575Z,96867.94
2023-03-05T04:16:59.378Z,96864.72
2023-03-05T04:19:26.203Z,96859.66
2023-03-05T04:21:53.015Z,96862.56
2023-03-05T04:24:19.828Z,96859.31
2023-03-05T04:26:46.681Z,96857.00
2023-03-05T04:29:13.578Z,96861.03
2023-03-05T04:31:40.375Z,96850.66
2023-03-05T04:34:07.183Z,96857.19
2023-03-05T04:36:34.013Z,96850.44
2023-03-05T04:39:01.030Z,96853.50
2023-03-05T04:41:27.786Z,96847.47
2023-03-05T04:43:54.612Z,96845.91
2023-03-05T04:46:21.485Z,96845.31
2023-03-05T04:48:48.400Z,96845.56
2023-03-05T04:51:15.363Z,96850.03
2023-03-05T04:53:42.120Z,96848.38
2023-03-05T04:56:08.896Z,96841.47
2023-03-05T04:58:35.688Z,96839.66
2023-03-05T05:01:05.071Z,96841.59
2023-03-05T05:03:32.401Z,96836.28
2023-03-05T05:06:00.866Z,96840.75
2023-03-05T05:08:28.708Z,96838.94
2023-03-05T05:11:04.046Z,96838.34
2023-03-05T05:13:32.591Z,96835.69
2023-03-05T05:15:59.422Z,96835.69
2023-03-05T05:18:26.279Z,96834.00
2023-03-05T05:20:53.499Z,96827.84
2023-03-05T05:23:20.376Z,96832.31
2023-03-05T05:25:55.985Z,96815.88
2023-03-05T05:28:22.969Z,96828.94
2023-03-05T05:30:49.754Z,96830.91
2023-03-05T05:33:16.582Z,96830.03
2023-03-05T05:35:43.518Z,96832.69
2023-03-05T05:38:10.349Z,96834.50
2023-03-05T05:40:37.101Z,96832.81
2023-03-05T05:43:04.962Z,96825.81
2023-03-05T05:45:32.540Z,96825.69
2023-03-05T05:47:59.720Z,96824.69
2023-03-05T05:50:27.289Z,96829.91
2023-03-05T05:52:54.344Z,96834.25
2023-03-05T05:55:21.181Z,96831.44
2023-03-05T05:57:47.959Z,96831.34
2023-03-05T06:00:15.482Z,96830.38
2023-03-05T06:02:42.944Z,96831.09
2023-03-05T06:05:13.312Z,96826.72
2023-03-05T06:07:40.400Z,96832.78
2023-03-05T06:10:08.732Z,96824.78
2023-03-05T06:12:35.521Z,96824.66
2023-03-05T06:15:02.319Z,96824.53
2023-03-05T06:17:31.027Z,96823.41
2023-03-05T06:19:58.989Z,96818.84
2023-03-05T06:22:25.882Z,96827.41
2023-03-05T06:24:53.511Z,96822.78
2023-03-05T06:27:20.291Z,96824.22
2023-03-05T06:29:47.059Z,96820.44
2023-03-05T06:32:13.853Z,96824.66
2023-03-05T06:34:40.642Z,96820.91
2023-03-05T06:37:07.468Z,96824.16
2023-03-05T06:39:34.249Z,96816.88
2023-03-05T06:42:00.995Z,96826.41
2023-03-05T06:44:27.898Z,96817.44
2023-03-05T06:46:54.691Z,96816.22
2023-03-05T06:49:21.441Z,96809.94
2023-03-05T06:51:48.237Z,96812.34
2023-03-05T06:54:17.003Z,96813.91
2023-03-05T06:56:46.649Z,96808.59
2023-03-05T06:59:16.062Z,96816.28
2023-03-05T07:01:44.539Z,96806.34
2023-03-05T07:04:12.610Z,96808.78
2023-03-05T07:06:42.008Z,96804.13
2023-03-05T07:09:14.735Z,96799.78
2023-03-05T07:11:41.786Z,96801.22
2023-03-05T07:14:08.662Z,96804.56
2023-03-05T07:16:35.615Z,96803.63
2023-03-05T07:19:05.241Z,96799.97
2023-03-05T07:21:34.686Z,96798.84
2023-03-05T07:24:03.025Z,96799.25
2023-03-05T07:26:33.225Z,96805.88
2023-03-05T07:29:01.134Z,96800.41
2023-03-05T07:31:30.912Z,96801.13
2023-03-05T07:34:00.734Z,96799.31
2023-03-05T07:36:29.800Z,96797.34
2023-03-05T07:38:56.680Z,96797.22
2023-03-05T07:41:23.790Z,96799.75
2023-03-05T07:43:53.491Z,96793.44
2023-03-05T07:46:24.886Z,96792.59
2023-03-05T07:48:54.507Z,96793.31
2023-03-05T07:51:22.382Z,96795.84
2023-03-05T07:53:51.776Z,96791.34
2023-03-05T07:56:36.559Z,96787.25
2023-03-05T07:59:08.513Z,96791.50
2023-03-05T08:01:36.301Z,96787.69
2023-03-05T08:04:04.561Z,96796.41
2023-03-05T08:06:31.655Z,96788.28
2023-03-05T08:08:59.823Z,96788.84
2023-03-05T08:11:28.382Z,96785.09
2023-03-05T08:13:55.214Z,96781.84
2023-03-05T08:16:22.286Z,96784.25
2023-03-05T08:18:49.286Z,96784.84
2023-03-05T08:21:29.279Z,96775.28
2023-03-05T08:23:57.628Z,96779.34
2023-03-05T08:26:28.071Z,96787.22
2023-03-05T08:28:55.141Z,96780.94
2023-03-05T08:31:24.416Z,96784.44
2023-03-05T08:33:53.788Z,96779.22
2023-03-05T08:36:20.898Z,96779.22
2023-03-05T08:38:48.492Z,96775.72
2023-03-05T08:41:16.966Z,96764.34
2023-03-05T08:43:43.818Z,96777.69
2023-03-05T08:46:12.518Z,96764.47
2023-03-05T08:48:39.609Z,96774.19
2023-03-05T08:51:14.916Z,96765.34
2023-03-05T08:53:43.998Z,96768.69
2023-03-05T08:56:11.274Z,96760.69
2023-03-05T08:58:38.080Z,96757.88
2023-03-05T09:01:05.600Z,96758.75
2023-03-05T09:03:33.014Z,96763.94
2023-03-05T09:06:06.708Z,96760.53
2023-03-05T09:08:34.335Z,96764.09
2023-03-05T09:11:07.407Z,96767.13
2023-03-05T09:13:34.993Z,96765.34
2023-03-05T09:16:06.281Z,96765.34
2023-03-05T09:18:36.375Z,96759.00
2023-03-05T09:21:08.850Z,96762.78
2023-03-05T09:23:35.812Z,96758.19
2023-03-05T09:26:06.546Z,96746.78
2023-03-05T09:28:33.500Z,96743.13
2023-03-05T09:31:05.500Z,96746.69
2023-03-05T09:33:33.206Z,96742.03
2023-03-05T09:36:01.814Z,96735.84
2023-03-05T09:38:29.099Z,96740.19
2023-03-05T09:41:07.570Z,96736.00
2023-03-05T09:44:05.116Z,96741.47
2023-03-05T09:47:07.258Z,96736.38
2023-03-05T09:50:03.931Z,96728.53
2023-03-05T09:52:42.323Z,96732.19
2023-03-05T09:55:40.850Z,96731.34
2023-03-05T09:58:39.230Z,96729.78
2023-03-05T10:01:11.259Z,96723.34
2023-03-05T10:04:16.562Z,96725.44
2023-03-05T10:07:00.057Z,96721.94
2023-03-05T10:10:04.625Z,96719.69
2023-03-05T10:12:50.174Z,96723.47
2023-03-05T10:15:27.151Z,96713.91
2023-03-05T10:18:47.153Z,96720.91
2023-03-05T10:21:22.055Z,96723.72
2023-03-05T10:24:15.220Z,96727.47
2023-03-05T10:27:14.400Z,96731.28
2023-03-05T10:30:17.251Z,96724.22
2023-03-05T10:32:53.581Z,96713.47
2023-03-05T10:35:43.617Z,96724.22
2023-03-05T10:38:43.733Z,96712.03
2023-03-05T10:41:38.403Z,96706.28
2023-03-05T10:44:20.041Z,96711.63
2023-03-05T10:46:48.955Z,96702.75
2023-03-05T10:49:30.960Z,96701.22
2023-03-05T10:52:18.149Z,96702.31
2023-03-05T10:54:45.412Z,96701.22
2023-03-05T10:57:25.189Z,96690.13
2023-03-05T11:00:01.315Z,96692.91
2023-03-05T11:02:28.222Z,96690.25
2023-03-05T11:04:55.010Z,96682.41
2023-03-05T11:07:22.653Z,96681.69
2023-03-05T11:10:13.994Z,96679.53
2023-03-05T11:12:40.953Z,96686.47
2023-03-05T11:15:10.474Z,96678.53
2023-03-05T11:17:39.744Z,96674.09
2023-03-05T11:20:27.445Z,96670.72
2023-03-05T11:23:04.769Z,96670.47
2023-03-05T11:25:34.117Z,96670.06
2023-03-05T11:28:03.612Z,96666.16
2023-03-05T11:30:37.106Z,96667.84
2023-03-05T11:33:14.573Z,96659.69
2023-03-05T11:35:43.715Z,96658.59
2023-03-05T11:38:24.496Z,96655.22
2023-03-05T11:40:54.216Z,96656.63
2023-03-05T11:43:24.555Z,96658.44
2023-03-05T11:45:55.840Z,96647.66
2023-03-05T11:48:30.910Z,96643.88
2023-03-05T11:51:08.282Z,96644.59
2023-03-05T11:53:37.198Z,96644.03
2023-03-05T11:56:27.291Z,96644.19
2023-03-05T11:59:17.178Z,96639.53
2023-03-05T12:01:50.357Z,96635.34
2023-03-05T12:04:18.913Z,96630.03
2023-03-05T12:07:02.368Z,96628.19
2023-03-05T12:09:47.457Z,96621.50
2023-03-05T12:12:47.330Z,96616.56
2023-03-05T12:15:35.132Z,96614.03
2023-03-05T12:18:29.460Z,96607.03
2023-03-05T12:21:13.684Z,96607.75
2023-03-05T12:24:01.588Z,96601.84
2023-03-05T12:26:53.054Z,96597.78
2023-03-05T12:29:50.346Z,96591.88
2023-03-05T12:32:23.204Z,96586.28
2023-03-05T12:35:00.955Z,96588.09
2023-03-05T12:37:27.809Z,96578.84
2023-03-05T12:40:29.879Z,96569.44
2023-03-05T12:42:59.629Z,96561.03
2023-03-05T12:45:41.846Z,96560.19
2023-03-05T12:48:12.544Z,96561.72
2023-03-05T12:50:39.332Z,96558.91
2023-03-05T12:53:16.834Z,96560.44
2023-03-05T12:56:13.504Z,96553.16
2023-03-05T12:58:54.005Z,96553.69
2023-03-05T13:01:41.054Z,96550.19
2023-03-05T13:04:21.257Z,96554.41
2023-03-05T13:07:07.200Z,96540.09
2023-03-05T13:09:36.274Z,96538.72
2023-03-05T13:12:11.759Z,96541.22
2023-03-05T13:14:48.290Z,96536.72
2023-03-05T13:17:40.065Z,96534.06
2023-03-05T13:20:29.982Z,96536.88
2023-03-05T13:23:26.763Z,96543.47
2023-03-05T13:26:15.038Z,96538.16
2023-03-05T13:28:44.775Z,96532.81
2023-03-05T13:31:18.984Z,96525.09
2023-03-05T13:34:05.789Z,96529.72
2023-03-05T13:36:33.041Z,96527.75
2023-03-05T13:39:00.635Z,96528.03
2023-03-05T13:41:28.374Z,96521.19
2023-03-05T13:44:02.560Z,96522.28
2023-03-05T13:46:39.760Z,96517.97
2023-03-05T13:49:26.888Z,96514.56
2023-03-05T13:51:57.146Z,96523.28
2023-03-05T13:54:26.312Z,96515.28
2023-03-05T13:57:02.832Z,96518.38
2023-03-05T13:59:33.822Z,96513.06
2023-03-05T14:02:18.126Z,96511.78
2023-03-05T14:04:46.557Z,96512.59
2023-03-05T14:07:26.671Z,96506.75
2023-03-05T14:09:53.853Z,96501.25
2023-03-05T14:12:35.891Z,96502.38
2023-03-05T14:15:08.975Z,96499.59
2023-03-05T14:17:42.830Z,96494.38
2023-03-05T14:20:30.911Z,96486.53
2023-03-05T14:23:00.995Z,96487.09
2023-03-05T14:25:38.491Z,96480.09
2023-03-05T14:28:28.300Z,96481.91
2023-03-05T14:30:57.059Z,96479.78
2023-03-05T14:33:28.786Z,96480.63
2023-03-05T14:35:57.722Z,96469.00
2023-03-05T14:38:30.378Z,96468.03
2023-03-05T14:40:57.619Z,96473.91
2023-03-05T14:43:24.363Z,96465.09
2023-03-05T14:45:52.239Z,96464.25
2023-03-05T14:48:19.230Z,96458.91
2023-03-05T14:50:52.238Z,96450.34
2023-03-05T14:53:24.635Z,96446.97
2023-03-05T14:55:56.800Z,96444.47
2023-03-05T14:58:29.744Z,96434.78
2023-03-05T15:00:56.912Z,96437.31
2023-03-05T15:03:25.231Z,96432.13
2023-03-05T15:05:55.366Z,96431.97
2023-03-05T15:08:27.106Z,96428.31
2023-03-05T15:10:55.595Z,96428.03
2023-03-05T15:13:22.658Z,96429.72
2023-03-05T15:15:51.482Z,96428.72
2023-03-05T15:18:21.739Z,96426.94
2023-03-05T15:20:49.283Z,96421.28
2023-03-05T15:23:16.153Z,96420.28
2023-03-05T15:25:43.257Z,96413.00
2023-03-05T15:28:10.470Z,96413.69
2023-03-05T15:30:41.620Z,96404.03
2023-03-05T15:33:13.041Z,96402.06
2023-03-05T15:35:41.232Z,96402.75
2023-03-05T15:38:09.103Z,96401.75
2023-03-05T15:40:35.939Z,96389.97
2023-03-05T15:43:03.097Z,96392.47
2023-03-05T15:45:31.299Z,96381.53
2023-03-05T15:47:58.391Z,96381.25
2023-03-05T15:50:25.178Z,96381.94
2023-03-05T15:52:52.457Z,96380.81
2023-03-05T15:55:19.752Z,96380.53
2023-03-05T15:57:51.122Z,96381.38
2023-03-05T16:00:24.863Z,96376.88
2023-03-05T16:02:52.835Z,96366.75
2023-03-05T16:05:19.741Z,96369.13
2023-03-05T16:07:50.323Z,96369.25
2023-03-05T16:10:23.063Z,96363.81
2023-03-05T16:12:58.054Z,96364.63
2023-03-05T16:15:25.118Z,96357.31
2023-03-05T16:17:56.197Z,96358.16
2023-03-05T16:20:23.735Z,96349.03
2023-03-05T16:22:50.626Z,96351.53
2023-03-05T16:25:18.040Z,96350.56
2023-03-05T16:27:45.165Z,96348.75
2023-03-05T16:30:15.313Z,96346.19
2023-03-05T16:32:42.750Z,96343.41
2023-03-05T16:35:12.234Z,96344.38
2023-03-05T16:37:40.641Z,96336.38
2023-03-05T16:40:10.746Z,96331.19
2023-03-05T16:42:37.633Z,96331.03
2023-03-05T16:45:06.896Z,96339.19
2023-03-05T16:47:34.368Z,96328.38
2023-03-05T16:50:01.184Z,96327.53
2023-03-05T16:52:29.158Z,96328.53
2023-03-05T16:54:56.062Z,96328.38
2023-03-05T16:57:26.211Z,96330.19
2023-03-05T16:59:54.006Z,96321.38
2023-03-05T17:02:21.150Z,96319.53
2023-03-05T17:04:49.305Z,96322.06
2023-03-05T17:07:16.955Z,96317.56
2023-03-05T17:09:44.343Z,96314.91
2023-03-05T17:12:11.284Z,96318.41
2023-03-05T17:14:38.069Z,96316.56
2023-03-05T17:17:04.889Z,96312.06
2023-03-05T17:19:32.005Z,96317.28
2023-03-05T17:21:58.829Z,96314.63
2023-03-05T17:24:25.589Z,96317.28
2023-03-05T17:26:52.455Z,96319.78
2023-03-05T17:29:19.872Z,96312.78
2023-03-05T17:31:49.753Z,96323.44
2023-03-05T17:34:16.805Z,96319.53
2023-03-05T17:36:45.446Z,96329.06
2023-03-05T17:39:13.028Z,96323.19
2023-03-05T17:41:39.822Z,96326.16
2023-03-05T17:44:06.669Z,96319.31
2023-03-05T17:46:33.688Z,96322.09
2023-03-05T17:49:00.586Z,96323.25
2023-03-05T17:51:27.419Z,96319.03
2023-03-05T17:53:54.179Z,96327.19
2023-03-05T17:56:21.994Z,96322.00
2023-03-05T17:58:49.575Z,96322.16
2023-03-05T18:01:29.563Z,96318.09
2023-03-05T18:03:57.251Z,96317.13
2023-03-05T18:06:24.552Z,96313.78
2023-03-05T18:08:51.560Z,96313.78
2023-03-05T18:11:18.904Z,96313.91
2023-03-05T18:13:45.694Z,96309.44
2023-03-05T18:16:16.743Z,96307.59
2023-03-05T18:18:44.613Z,96302.28
2023-03-05T18:21:11.435Z,96302.94
2023-03-05T18:23:38.311Z,96295.94
2023-03-05T18:26:05.186Z,96294.94
2023-03-05T18:28:32.280Z,96295.78
2023-03-05T18:30:59.258Z,96293.94
2023-03-05T18:33:26.054Z,96294.94
2023-03-05T18:35:53.451Z,96297.63
2023-03-05T18:38:23.650Z,96297.91
2023-03-05T18:40:52.464Z,96301.44
2023-03-05T18:43:20.898Z,96290.78
2023-03-05T18:45:53.999Z,96287.41
2023-03-05T18:48:21.401Z,96294.28
2023-03-05T18:50:52.945Z,96291.72
2023-03-05T18:53:21.471Z,96288.09
2023-03-05T18:55:50.368Z,96287.09
2023-03-05T18:58:18.187Z,96288.69
2023-03-05T19:00:47.007Z,96283.72
2023-03-05T19:03:15.610Z,96290.22
2023-03-05T19:05:43.584Z,96279.56
2023-03-05T19:08:11.327Z,96277.84
2023-03-05T19:10:38.198Z,96276.19
2023-03-05T19:13:35.261Z,96276.34
2023-03-05T19:16:14.387Z,96271.31
2023-03-05T19:18:57.164Z,96273.81
2023-03-05T19:21:24.745Z,96267.50
2023-03-05T19:23:51.542Z,96263.16
2023-03-05T19:26:18.310Z,96267.50
2023-03-05T19:28:45.112Z,96265.81
2023-03-05T19:31:14.570Z,96262.31
2023-03-05T19:33:42.530Z,96265.81
2023-03-05T19:36:11.362Z,96256.97
2023-03-05T19:38:38.787Z,96263.16
2023-03-05T19:41:06.639Z,96256.16
2023-03-05T19:43:33.428Z,96259.53
2023-03-05T19:46:06.120Z,96254.31
2023-03-05T19:48:34.651Z,96255.16
2023-03-05T19:51:03.294Z,96251.53
2023-03-05T19:53:30.234Z,96244.50
2023-03-05T19:55:57.039Z,96248.84
2023-03-05T19:58:23.898Z,96248.84
2023-03-05T20:00:50.651Z,96240.03
2023-03-05T20:03:17.430Z,96247.16
2023-03-05T20:05:44.233Z,96234.69
2023-03-05T20:08:11.365Z,96232.16
2023-03-05T20:10:38.370Z,96228.66
2023-03-05T20:13:05.296Z,96232.16
2023-03-05T20:15:32.852Z,96226.00
2023-03-05T20:18:01.039Z,96234.81
2023-03-05T20:20:28.777Z,96229.66
2023-03-05T20:22:55.572Z,96228.81
2023-03-05T20:25:24.701Z,96224.44
2023-03-05T20:27:52.388Z,96227.13
2023-03-05T20:30:19.702Z,96224.59
2023-03-05T20:32:46.570Z,96235.44
2023-03-05T20:35:16.974Z,96225.22
2023-03-05T20:37:51.387Z,96230.69
2023-03-05T20:40:18.409Z,96223.00
2023-03-05T20:42:45.212Z,96226.78
2023-03-05T20:45:12.421Z,96219.91
2023-03-05T20:47:45.125Z,96211.25
2023-03-05T20:50:14.347Z,96213.06
2023-03-05T20:52:41.305Z,96214.03
2023-03-05T20:55:09.485Z,96213.22
2023-03-05T20:57:36.295Z,96212.25
2023-03-05T21:00:03.986Z,96203.38
2023-03-05T21:02:30.781Z,96206.06
2023-03-05T21:04:57.584Z,96195.56
2023-03-05T21:07:26.126Z,96202.72
2023-03-05T21:09:52.897Z,96208.88
2023-03-05T21:12:19.649Z,96204.53
2023-03-05T21:14:46.410Z,96193.03
2023-03-05T21:17:13.224Z,96198.38
2023-03-05T21:19:40.077Z,96198.50
2023-03-05T21:22:06.966Z,96194.16
2023-03-05T21:24:43.680Z,96186.34
2023-03-05T21:27:10.584Z,96182.84
2023-03-05T21:29:37.409Z,96181.13
2023-03-05T21:32:04.790Z,96189.13
2023-03-05T21:34:31.607Z,96181.97
2023-03-05T21:36:58.344Z,96179.31
2023-03-05T21:39:25.138Z,96170.63
2023-03-05T21:41:51.907Z,96160.81
2023-03-05T21:44:18.993Z,96162.66
2023-03-05T21:46:45.811Z,96159.16
2023-03-05T21:49:12.584Z,96164.47
2023-03-05T21:51:50.537Z,96159.16
2023-03-05T21:54:17.290Z,96153.13
2023-03-05T21:56:44.261Z,96149.50
2023-03-05T21:59:11.168Z,96138.97
2023-03-05T22:01:37.926Z,96145.28
2023-03-05T22:04:05.285Z,96142.78
2023-03-05T22:06:32.115Z,96142.78
2023-03-05T22:08:58.880Z,96132.25
2023-03-05T22:11:25.675Z,96134.91
2023-03-05T22:13:52.452Z,96133.91
2023-03-05T22:16:24.851Z,96125.25
2023-03-05T22:18:53.007Z,96122.59
2023-03-05T22:21:25.665Z,96110.41
2023-03-05T22:23:54.163Z,96116.44
2023-03-05T22:26:20.926Z,96109.44
2023-03-05T22:28:47.707Z,96107.75
2023-03-05T22:31:25.684Z,96100.19
2023-03-05T22:33:53.165Z,96098.38
2023-03-05T22:36:20.612Z,96092.38
2023-03-05T22:38:47.459Z,96097.00
2023-03-05T22:41:17.063Z,96092.78
2023-03-05T22:43:43.813Z,96094.75
2023-03-05T22:46:16.942Z,96086.66
2023-03-05T22:48:44.723Z,96090.59
2023-03-05T22:51:12.739Z,96080.28
2023-03-05T22:53:40.494Z,96078.72
2023-03-05T22:56:19.688Z,96080.19
2023-03-05T22:58:46.703Z,96068.53
2023-03-05T23:01:16.225Z,96078.63
2023-03-05T23:03:43.287Z,96065.47
2023-03-05T23:06:10.482Z,96057.63
2023-03-05T23:08:37.371Z,96054.97
2023-03-05T23:11:10.191Z,96052.47
2023-03-05T23:13:37.177Z,96046.16
2023-03-05T23:16:04.503Z,96044.31
2023-03-05T23:18:31.370Z,96043.34
2023-03-05T23:20:58.179Z,96043.34
2023-03-05T23:23:25.987Z,96032.84
2023-03-05T23:25:53.150Z,96033.84
2023-03-05T23:28:20.115Z,96033.84
2023-03-05T23:30:47.062Z,96027.69
2023-03-05T23:33:17.658Z,96033.00
2023-03-05T23:36:10.802Z,96020.97
2023-03-05T23:38:37.670Z,96016.88
2023-03-05T23:41:09.407Z,96015.34
2023-03-05T23:43:36.302Z,96017.69
2023-03-05T23:46:03.157Z,96008.06
2023-03-05T23:48:31.067Z,96013.38
2023-03-05T23:50:57.989Z,95997.56
2023-03-05T23:53:28.768Z,96002.06
2023-03-05T23:55:56.404Z,96003.72
2023-03-05T23:58:23.813Z,95994.06
